ZSTIX FAWB-FAIR
Flight info
| Callsign | ZSTIX |
|---|---|
| Flight time | N/A |
| Altitude | 9000 |
| Route | WKV JSV |
| Aircraft | PA28/L-VGD/A |
Departure
| Time | 2026-04-23 17:28 |
|---|---|
| Airport | Wonderboom Airport (FAWB) |
Arrival
| Time | N/A |
|---|---|
| Airport | FAIR |
| Time | Latitude | Longitude | Altitude | Speed | Heading |
|---|---|---|---|---|---|
| 2026-04-23 17:12 | -25.65737 | 28.21540 | 4089 ft | 0 kts | 229° |
| 2026-04-23 17:16 | -25.65743 | 28.21534 | 4089 ft | 2 kts | 217° |
| 2026-04-23 17:16 | -25.65750 | 28.21545 | 4089 ft | 4 kts | 60° |
| 2026-04-23 17:17 | -25.65724 | 28.21576 | 4089 ft | 0 kts | 42° |
| 2026-04-23 17:17 | -25.65720 | 28.21579 | 4089 ft | 2 kts | 28° |
| 2026-04-23 17:17 | -25.65715 | 28.21582 | 4089 ft | 0 kts | 24° |
| 2026-04-23 17:17 | -25.65705 | 28.21588 | 4088 ft | 3 kts | 76° |
| 2026-04-23 17:18 | -25.65753 | 28.21630 | 4089 ft | 5 kts | 137° |
| 2026-04-23 17:18 | -25.65761 | 28.21639 | 4090 ft | 0 kts | 134° |
| 2026-04-23 17:18 | -25.65762 | 28.21640 | 4090 ft | 1 kts | 130° |
| 2026-04-23 17:19 | -25.65761 | 28.21672 | 4090 ft | 6 kts | 44° |
| 2026-04-23 17:19 | -25.65744 | 28.21688 | 4089 ft | 3 kts | 39° |
| 2026-04-23 17:19 | -25.65712 | 28.21727 | 4089 ft | 10 kts | 44° |
| 2026-04-23 17:19 | -25.65643 | 28.21793 | 4087 ft | 13 kts | 51° |
| 2026-04-23 17:20 | -25.65578 | 28.21867 | 4087 ft | 15 kts | 44° |
| 2026-04-23 17:20 | -25.65456 | 28.21989 | 4086 ft | 16 kts | 45° |
| 2026-04-23 17:21 | -25.65460 | 28.22296 | 4095 ft | 17 kts | 92° |
| 2026-04-23 17:21 | -25.65463 | 28.22418 | 4099 ft | 16 kts | 90° |
| 2026-04-23 17:21 | -25.65529 | 28.22578 | 4107 ft | 12 kts | 179° |
| 2026-04-23 17:22 | -25.65557 | 28.22607 | 4109 ft | 0 kts | 47° |
| 2026-04-23 17:25 | -25.65551 | 28.22613 | 4109 ft | 4 kts | 47° |
| 2026-04-23 17:25 | -25.65533 | 28.22657 | 4111 ft | 7 kts | 65° |
| 2026-04-23 17:26 | -25.65479 | 28.22792 | 4115 ft | 11 kts | 94° |
| 2026-04-23 17:26 | -25.65487 | 28.22985 | 4120 ft | 13 kts | 94° |
| 2026-04-23 17:27 | -25.65461 | 28.23089 | 4121 ft | 8 kts | 24° |
| 2026-04-23 17:27 | -25.65390 | 28.23089 | 4118 ft | 11 kts | 316° |
| 2026-04-23 17:27 | -25.65374 | 28.22917 | 4114 ft | 48 kts | 268° |
| 2026-04-23 17:27 | -25.65353 | 28.22406 | 4200 ft | 64 kts | 262° |
| 2026-04-23 17:28 | -25.65339 | 28.21854 | 4244 ft | 81 kts | 269° |
| 2026-04-23 17:28 | -25.65310 | 28.21235 | 4456 ft | 78 kts | 274° |
| 2026-04-23 17:28 | -25.65227 | 28.20598 | 4600 ft | 87 kts | 281° |
| 2026-04-23 17:28 | -25.65120 | 28.19929 | 4788 ft | 89 kts | 279° |
| 2026-04-23 17:29 | -25.65037 | 28.19274 | 5016 ft | 84 kts | 281° |
| 2026-04-23 17:29 | -25.64937 | 28.18586 | 5143 ft | 94 kts | 283° |
| 2026-04-23 17:29 | -25.64690 | 28.17147 | 5555 ft | 89 kts | 294° |
| 2026-04-23 17:30 | -25.64556 | 28.16699 | 5670 ft | 92 kts | 295° |
| 2026-04-23 17:30 | -25.64468 | 28.15027 | 6088 ft | 97 kts | 237° |
| 2026-04-23 17:30 | -25.64952 | 28.14510 | 6235 ft | 99 kts | 209° |
| 2026-04-23 17:31 | -25.65538 | 28.14185 | 6462 ft | 90 kts | 191° |
| 2026-04-23 17:31 | -25.66147 | 28.13972 | 6621 ft | 93 kts | 189° |
| 2026-04-23 17:31 | -25.66753 | 28.13877 | 6819 ft | 89 kts | 178° |
| 2026-04-23 17:31 | -25.67378 | 28.13873 | 6979 ft | 89 kts | 167° |
| 2026-04-23 17:32 | -25.68002 | 28.13954 | 7146 ft | 90 kts | 164° |
| 2026-04-23 17:32 | -25.68630 | 28.14072 | 7293 ft | 94 kts | 166° |